createdAt,value
2023-05-01T00:00:20.030Z,52.75
2023-05-01T00:02:28.236Z,53.17
2023-05-01T00:04:34.643Z,52.77
2023-05-01T00:06:38.096Z,52.43
2023-05-01T00:08:41.792Z,52.67
2023-05-01T00:10:46.556Z,52.60
2023-05-01T00:12:50.542Z,52.72
2023-05-01T00:14:55.331Z,52.75
2023-05-01T00:16:59.977Z,52.71
2023-05-01T00:19:04.962Z,52.91
2023-05-01T00:21:10.129Z,52.79
2023-05-01T00:23:13.692Z,52.87
2023-05-01T00:25:17.262Z,52.75
2023-05-01T00:27:20.604Z,53.11
2023-05-01T00:29:23.996Z,52.98
2023-05-01T00:31:27.538Z,52.64
2023-05-01T00:33:31.060Z,52.79
2023-05-01T00:35:37.754Z,53.17
2023-05-01T00:37:42.628Z,52.99
2023-05-01T00:39:45.941Z,52.96
2023-05-01T00:41:49.764Z,52.94
2023-05-01T00:43:53.360Z,53.41
2023-05-01T00:45:57.476Z,53.29
2023-05-01T00:48:01.067Z,53.25
2023-05-01T00:50:04.995Z,53.39
2023-05-01T00:52:09.855Z,53.71
2023-05-01T00:54:15.390Z,53.96
2023-05-01T00:56:18.976Z,53.71
2023-05-01T00:58:22.284Z,54.06
2023-05-01T01:00:25.817Z,53.78
2023-05-01T01:02:29.602Z,54.01
2023-05-01T01:04:34.477Z,54.05
2023-05-01T01:06:48.526Z,53.82
2023-05-01T01:09:07.705Z,53.99
2023-05-01T01:11:21.715Z,54.02
2023-05-01T01:13:31.301Z,54.46
2023-05-01T01:15:37.970Z,54.83
2023-05-01T01:17:53.647Z,54.75
2023-05-01T01:20:38.631Z,55.00
2023-05-01T01:22:47.421Z,55.96
2023-05-01T01:25:14.857Z,55.83
2023-05-01T01:27:46.773Z,56.00
2023-05-01T01:30:09.417Z,56.25
2023-05-01T01:32:35.844Z,56.61
2023-05-01T01:34:48.663Z,56.70
2023-05-01T01:37:01.583Z,56.80
2023-05-01T01:39:12.480Z,56.76
2023-05-01T01:41:21.990Z,56.60
2023-05-01T01:43:27.057Z,56.40
2023-05-01T01:45:35.497Z,56.71
2023-05-01T01:47:42.165Z,56.84
2023-05-01T01:49:51.263Z,56.99
2023-05-01T01:51:57.798Z,57.21
2023-05-01T01:54:03.634Z,57.06
2023-05-01T01:56:08.792Z,57.25
2023-05-01T01:58:14.889Z,57.13
2023-05-01T02:00:20.656Z,57.11
2023-05-01T02:02:28.291Z,57.43
2023-05-01T02:04:33.821Z,57.33
2023-05-01T02:06:40.562Z,57.26
2023-05-01T02:08:48.042Z,57.24
2023-05-01T02:10:52.087Z,56.72
2023-05-01T02:12:59.170Z,56.99
2023-05-01T02:15:04.514Z,57.11
2023-05-01T02:17:09.376Z,56.96
2023-05-01T02:19:15.838Z,57.02
2023-05-01T02:21:20.939Z,56.50
2023-05-01T02:23:26.735Z,56.67
2023-05-01T02:25:35.734Z,56.57
2023-05-01T02:27:41.859Z,56.53
2023-05-01T02:29:45.326Z,56.50
2023-05-01T02:31:50.822Z,56.42
2023-05-01T02:33:55.240Z,56.43
2023-05-01T02:35:58.603Z,56.51
2023-05-01T02:38:02.358Z,56.32
2023-05-01T02:40:09.427Z,56.45
2023-05-01T02:42:16.261Z,56.27
2023-05-01T02:44:21.107Z,56.30
2023-05-01T02:46:27.218Z,56.20
2023-05-01T02:48:32.900Z,56.23
2023-05-01T02:50:40.594Z,56.34
2023-05-01T02:52:45.054Z,56.20
2023-05-01T02:55:08.815Z,56.64
2023-05-01T02:57:12.840Z,56.48
2023-05-01T02:59:16.456Z,56.74
2023-05-01T03:01:21.676Z,56.83
2023-05-01T03:03:25.082Z,56.90
2023-05-01T03:05:29.620Z,57.16
2023-05-01T03:07:35.215Z,57.31
2023-05-01T03:09:38.688Z,57.18
2023-05-01T03:11:43.618Z,57.23
2023-05-01T03:13:47.866Z,57.16
2023-05-01T03:15:51.259Z,57.31
2023-05-01T03:17:54.613Z,57.58
2023-05-01T03:19:59.678Z,57.84
2023-05-01T03:22:04.077Z,58.05
2023-05-01T03:24:08.014Z,58.03
2023-05-01T03:26:11.744Z,58.19
2023-05-01T03:28:17.410Z,57.96
2023-05-01T03:30:21.829Z,58.27
2023-05-01T03:32:26.168Z,58.20
2023-05-01T03:34:30.888Z,58.47
2023-05-01T03:36:35.282Z,58.34
2023-05-01T03:38:39.365Z,58.61
2023-05-01T03:40:45.650Z,58.33
2023-05-01T03:43:11.868Z,58.41
2023-05-01T03:45:16.720Z,58.53
2023-05-01T03:47:20.409Z,58.52
2023-05-01T03:49:24.544Z,58.55
2023-05-01T03:51:28.703Z,58.74
2023-05-01T03:53:33.008Z,58.85
2023-05-01T03:55:39.971Z,58.94
2023-05-01T03:57:43.525Z,58.96
2023-05-01T03:59:47.978Z,59.12
2023-05-01T04:01:53.836Z,59.22
2023-05-01T04:03:57.755Z,59.28
2023-05-01T04:06:02.138Z,59.51
2023-05-01T04:08:06.413Z,59.65
2023-05-01T04:10:11.248Z,59.93
2023-05-01T04:12:21.094Z,60.03
2023-05-01T04:14:27.683Z,60.25
2023-05-01T04:16:32.549Z,60.48
2023-05-01T04:18:41.516Z,60.41
2023-05-01T04:20:48.172Z,60.62
2023-05-01T04:22:56.893Z,60.79
2023-05-01T04:25:08.466Z,61.16
2023-05-01T04:27:17.784Z,61.45
2023-05-01T04:29:21.790Z,61.69
2023-05-01T04:31:27.767Z,61.69
2023-05-01T04:33:32.682Z,61.75
2023-05-01T04:35:38.852Z,61.87
2023-05-01T04:37:43.142Z,62.07
2023-05-01T04:39:46.690Z,62.30
2023-05-01T04:41:50.310Z,62.58
2023-05-01T04:43:53.753Z,62.78
2023-05-01T04:45:57.485Z,62.83
2023-05-01T04:48:01.618Z,63.12
2023-05-01T04:50:05.556Z,63.23
2023-05-01T04:52:10.661Z,63.15
2023-05-01T04:54:40.300Z,63.26
2023-05-01T04:56:43.896Z,63.37
2023-05-01T04:58:47.383Z,63.47
2023-05-01T05:00:54.605Z,63.31
2023-05-01T05:03:00.037Z,63.25
2023-05-01T05:05:04.045Z,63.46
2023-05-01T05:07:10.125Z,63.21
2023-05-01T05:09:36.337Z,63.27
2023-05-01T05:11:39.774Z,63.06
2023-05-01T05:13:47.882Z,62.93
2023-05-01T05:15:51.791Z,62.83
2023-05-01T05:17:58.083Z,62.88
2023-05-01T05:20:01.595Z,62.46
2023-05-01T05:22:05.273Z,62.44
2023-05-01T05:24:16.400Z,62.45
2023-05-01T05:26:19.722Z,62.51
2023-05-01T05:28:24.697Z,62.24
2023-05-01T05:30:28.589Z,62.21
2023-05-01T05:32:33.781Z,62.00
2023-05-01T05:34:37.408Z,61.59
2023-05-01T05:36:40.999Z,61.45
2023-05-01T05:38:44.588Z,61.55
2023-05-01T05:40:54.159Z,61.54
2023-05-01T05:42:58.084Z,61.50
2023-05-01T05:45:03.450Z,61.52
2023-05-01T05:47:07.444Z,61.39
2023-05-01T05:49:11.310Z,61.44
2023-05-01T05:51:14.761Z,61.21
2023-05-01T05:53:18.287Z,61.14
2023-05-01T05:55:21.789Z,60.85
2023-05-01T05:57:38.220Z,61.03
2023-05-01T05:59:44.512Z,61.22
2023-05-01T06:01:50.336Z,61.06
2023-05-01T06:03:53.730Z,60.79
2023-05-01T06:05:58.885Z,60.73
2023-05-01T06:08:02.445Z,60.62
2023-05-01T06:10:06.664Z,60.51
2023-05-01T06:12:10.225Z,60.32
2023-05-01T06:14:16.942Z,60.62
2023-05-01T06:16:21.208Z,60.54
2023-05-01T06:18:25.238Z,60.36
2023-05-01T06:20:28.610Z,60.42
2023-05-01T06:22:33.254Z,60.43
2023-05-01T06:24:52.441Z,60.31
2023-05-01T06:27:00.798Z,60.40
2023-05-01T06:29:05.142Z,59.76
2023-05-01T06:31:10.291Z,60.02
2023-05-01T06:33:18.794Z,60.03
2023-05-01T06:35:28.651Z,58.76
2023-05-01T06:37:32.146Z,58.75
2023-05-01T06:39:36.548Z,58.57
2023-05-01T06:41:40.017Z,58.45
2023-05-01T06:43:43.570Z,58.08
2023-05-01T06:45:47.039Z,57.73
2023-05-01T06:47:52.004Z,57.43
2023-05-01T06:49:55.947Z,56.74
2023-05-01T06:52:00.778Z,57.33
2023-05-01T06:54:04.215Z,57.17
2023-05-01T06:56:08.125Z,57.00
2023-05-01T06:58:22.610Z,56.74
2023-05-01T07:00:28.070Z,56.50
2023-05-01T07:02:31.800Z,56.17
2023-05-01T07:04:36.620Z,56.38
2023-05-01T07:06:40.140Z,56.48
2023-05-01T07:08:44.383Z,56.72
2023-05-01T07:10:49.603Z,56.56
2023-05-01T07:12:53.142Z,56.59
2023-05-01T07:14:56.909Z,56.32
2023-05-01T07:17:00.574Z,55.51
2023-05-01T07:19:04.688Z,55.29
2023-05-01T07:21:11.923Z,55.23
2023-05-01T07:23:15.403Z,55.42
2023-05-01T07:25:19.028Z,55.12
2023-05-01T07:27:22.674Z,55.14
2023-05-01T07:29:26.185Z,54.93
2023-05-01T07:31:30.242Z,55.73
2023-05-01T07:33:36.919Z,55.87
2023-05-01T07:35:40.373Z,55.29
2023-05-01T07:37:45.613Z,55.26
2023-05-01T07:39:48.931Z,54.88
2023-05-01T07:41:52.339Z,54.77
2023-05-01T07:43:55.728Z,54.24
2023-05-01T07:46:01.534Z,54.55
2023-05-01T07:48:05.868Z,54.45
2023-05-01T07:50:11.373Z,54.22
2023-05-01T07:52:20.953Z,54.40
2023-05-01T07:54:25.788Z,54.11
2023-05-01T07:56:29.662Z,53.95
2023-05-01T07:58:33.192Z,53.87
2023-05-01T08:00:37.407Z,54.23
2023-05-01T08:02:41.644Z,54.41
2023-05-01T08:04:46.044Z,54.06
2023-05-01T08:06:49.838Z,53.59
2023-05-01T08:08:53.252Z,52.86
2023-05-01T08:10:58.087Z,52.81
2023-05-01T08:13:01.814Z,52.74
2023-05-01T08:15:06.219Z,52.05
2023-05-01T08:17:09.720Z,52.09
2023-05-01T08:19:13.668Z,52.52
2023-05-01T08:21:16.989Z,52.72
2023-05-01T08:23:20.618Z,52.86
2023-05-01T08:25:24.629Z,52.90
2023-05-01T08:27:29.438Z,52.12
2023-05-01T08:29:32.825Z,51.92
2023-05-01T08:31:37.835Z,52.10
2023-05-01T08:33:42.084Z,51.71
2023-05-01T08:35:45.575Z,51.71
2023-05-01T08:37:49.048Z,52.13
2023-05-01T08:39:52.429Z,51.86
2023-05-01T08:41:56.705Z,51.81
2023-05-01T08:44:02.061Z,51.98
2023-05-01T08:46:08.858Z,52.01
2023-05-01T08:48:14.095Z,52.25
2023-05-01T08:50:19.098Z,51.73
2023-05-01T08:52:23.668Z,51.64
2023-05-01T08:54:29.059Z,51.62
2023-05-01T08:56:36.709Z,50.93
2023-05-01T08:58:40.974Z,50.63
2023-05-01T09:00:46.406Z,50.69
2023-05-01T09:02:51.373Z,50.30
2023-05-01T09:04:55.799Z,50.02
2023-05-01T09:07:00.839Z,51.20
2023-05-01T09:09:04.521Z,51.19
2023-05-01T09:11:08.011Z,50.86
2023-05-01T09:13:11.584Z,50.94
2023-05-01T09:15:15.364Z,51.03
2023-05-01T09:17:22.247Z,51.24
2023-05-01T09:19:26.281Z,51.06
2023-05-01T09:21:31.682Z,51.47
2023-05-01T09:23:37.517Z,50.90
2023-05-01T09:25:41.396Z,50.95
2023-05-01T09:27:45.674Z,50.13
2023-05-01T09:29:49.752Z,51.46
2023-05-01T09:31:53.291Z,51.02
2023-05-01T09:33:59.435Z,51.04
2023-05-01T09:36:03.001Z,50.59
2023-05-01T09:38:09.582Z,50.98
2023-05-01T09:40:14.710Z,50.58
2023-05-01T09:42:27.301Z,50.11
2023-05-01T09:44:31.302Z,50.25
2023-05-01T09:46:43.646Z,51.12
2023-05-01T09:48:55.515Z,49.88
2023-05-01T09:51:02.662Z,49.03
2023-05-01T09:53:06.825Z,49.06
2023-05-01T09:55:14.740Z,48.28
2023-05-01T09:57:18.149Z,47.86
2023-05-01T09:59:24.197Z,47.87
2023-05-01T10:01:41.461Z,47.37
2023-05-01T10:03:45.997Z,47.26
2023-05-01T10:05:49.649Z,45.67
2023-05-01T10:07:59.498Z,45.96
2023-05-01T10:10:19.290Z,45.61
2023-05-01T10:12:26.405Z,45.87
2023-05-01T10:14:30.485Z,45.54
2023-05-01T10:16:36.796Z,45.49
2023-05-01T10:18:40.206Z,45.76
2023-05-01T10:20:43.741Z,45.42
2023-05-01T10:22:47.958Z,45.02
2023-05-01T10:24:55.254Z,45.08
2023-05-01T10:27:04.744Z,44.85
2023-05-01T10:29:08.251Z,44.69
2023-05-01T10:31:13.016Z,44.48
2023-05-01T10:33:19.431Z,44.27
2023-05-01T10:35:27.538Z,44.30
2023-05-01T10:37:35.219Z,44.45
2023-05-01T10:39:38.582Z,44.17
2023-05-01T10:42:05.619Z,43.73
2023-05-01T10:44:22.148Z,43.49
2023-05-01T10:46:29.791Z,42.84
2023-05-01T10:48:56.182Z,42.93
2023-05-01T10:51:10.536Z,42.08
2023-05-01T10:53:20.201Z,42.05
2023-05-01T10:55:35.220Z,41.88
2023-05-01T10:57:46.290Z,41.69
2023-05-01T11:00:12.312Z,40.41
2023-05-01T11:02:26.270Z,40.42
2023-05-01T11:04:51.282Z,40.47
2023-05-01T11:07:17.850Z,39.16
2023-05-01T11:09:41.733Z,37.66
2023-05-01T11:11:51.668Z,37.99
2023-05-01T11:14:01.038Z,38.48
2023-05-01T11:16:42.193Z,38.87
2023-05-01T11:18:49.011Z,38.87
2023-05-01T11:20:52.504Z,38.07
2023-05-01T11:22:57.073Z,38.59
2023-05-01T11:25:00.511Z,38.96
2023-05-01T11:27:05.365Z,38.64
2023-05-01T11:29:11.399Z,38.74
2023-05-01T11:31:18.863Z,39.33
2023-05-01T11:33:28.900Z,39.11
2023-05-01T11:35:32.956Z,39.10
2023-05-01T11:37:44.280Z,39.75
2023-05-01T11:39:52.623Z,39.46
2023-05-01T11:42:08.803Z,38.69
2023-05-01T11:44:16.210Z,39.85
2023-05-01T11:46:25.320Z,39.34
2023-05-01T11:48:32.488Z,38.14
2023-05-01T11:50:37.548Z,39.19
2023-05-01T11:52:45.541Z,38.84
2023-05-01T11:54:49.525Z,38.68
2023-05-01T11:57:00.780Z,38.32
2023-05-01T12:01:17.554Z,37.66
2023-05-01T12:03:23.136Z,37.47
2023-05-01T12:05:27.564Z,37.40
2023-05-01T12:07:31.043Z,36.98
2023-05-01T12:09:34.825Z,36.97
2023-05-01T12:11:40.544Z,36.24
2023-05-01T12:13:47.826Z,36.44
2023-05-01T12:15:53.868Z,36.97
2023-05-01T12:17:59.078Z,37.73
2023-05-01T12:20:02.824Z,36.96
2023-05-01T12:22:07.686Z,36.03
2023-05-01T12:24:11.715Z,34.98
2023-05-01T12:26:18.774Z,35.52
2023-05-01T12:28:22.136Z,35.67
2023-05-01T12:30:26.711Z,35.88
2023-05-01T12:32:32.255Z,35.89
2023-05-01T12:34:37.309Z,36.41
2023-05-01T12:36:40.724Z,37.06
2023-05-01T12:38:56.715Z,36.11
2023-05-01T12:41:01.800Z,35.74
2023-05-01T12:43:05.221Z,37.42
2023-05-01T12:45:10.724Z,37.76
2023-05-01T12:47:15.355Z,37.67
2023-05-01T12:49:24.034Z,36.83
2023-05-01T12:51:28.893Z,36.54
2023-05-01T12:53:32.217Z,35.97
2023-05-01T12:55:47.544Z,36.17
2023-05-01T12:57:54.959Z,35.98
2023-05-01T13:00:02.909Z,35.02
2023-05-01T13:02:08.553Z,35.17
2023-05-01T13:04:12.425Z,34.34
2023-05-01T13:06:15.858Z,34.13
2023-05-01T13:08:27.151Z,34.45
2023-05-01T13:10:32.537Z,34.70
2023-05-01T13:12:45.418Z,35.13
2023-05-01T13:14:49.134Z,35.39
2023-05-01T13:16:52.992Z,34.94
2023-05-01T13:18:56.774Z,34.60
2023-05-01T13:21:08.281Z,34.03
2023-05-01T13:23:12.361Z,33.31
2023-05-01T13:25:19.042Z,33.05
2023-05-01T13:27:23.662Z,33.05
2023-05-01T13:29:28.318Z,33.10
2023-05-01T13:31:31.869Z,33.59
2023-05-01T13:33:35.273Z,34.00
2023-05-01T13:35:41.453Z,35.72
2023-05-01T13:37:45.075Z,36.04
2023-05-01T13:39:48.571Z,36.22
2023-05-01T13:41:53.929Z,36.90
2023-05-01T13:43:58.387Z,37.01
2023-05-01T13:46:01.790Z,37.50
2023-05-01T13:48:05.974Z,37.26
2023-05-01T13:50:11.496Z,37.87
2023-05-01T13:52:17.975Z,37.97
2023-05-01T13:54:21.270Z,37.77
2023-05-01T13:56:24.638Z,39.20
2023-05-01T13:58:30.687Z,40.23
2023-05-01T14:00:34.253Z,40.76
2023-05-01T14:02:44.550Z,40.69
2023-05-01T14:04:48.090Z,40.77
2023-05-01T14:06:51.540Z,40.64
2023-05-01T14:08:59.832Z,40.78
2023-05-01T14:11:06.443Z,41.36
2023-05-01T14:13:09.951Z,42.19
2023-05-01T14:15:14.757Z,44.57
2023-05-01T14:17:18.258Z,50.50
2023-05-01T14:19:22.460Z,55.80
2023-05-01T14:21:28.317Z,59.23
2023-05-01T14:23:33.397Z,59.82
2023-05-01T14:25:37.418Z,62.06
2023-05-01T14:27:40.762Z,62.74
2023-05-01T14:29:44.678Z,63.29
2023-05-01T14:31:49.612Z,64.60
2023-05-01T14:33:56.239Z,64.40
2023-05-01T14:35:59.691Z,62.97
2023-05-01T14:38:09.877Z,64.29
2023-05-01T14:40:13.735Z,65.17
2023-05-01T14:42:17.216Z,65.15
2023-05-01T14:44:21.531Z,62.57
2023-05-01T14:46:31.563Z,59.93
2023-05-01T14:48:37.726Z,60.79
2023-05-01T14:50:41.152Z,60.34
2023-05-01T14:52:44.430Z,59.97
2023-05-01T14:54:48.327Z,59.89
2023-05-01T14:56:51.710Z,61.08
2023-05-01T14:58:55.229Z,61.84
2023-05-01T15:00:58.620Z,62.83
2023-05-01T15:03:02.298Z,63.48
2023-05-01T15:05:07.704Z,64.47
2023-05-01T15:07:11.055Z,65.21
2023-05-01T15:09:14.739Z,66.84
2023-05-01T15:11:20.826Z,69.28
2023-05-01T15:13:24.168Z,69.65
2023-05-01T15:15:27.625Z,69.54
2023-05-01T15:17:32.443Z,68.83
2023-05-01T15:19:35.967Z,69.30
2023-05-01T15:21:40.659Z,70.50
2023-05-01T15:23:46.146Z,70.38
2023-05-01T15:25:50.654Z,70.30
2023-05-01T15:27:54.137Z,70.77
2023-05-01T15:29:57.594Z,70.48
2023-05-01T15:32:12.122Z,71.66
2023-05-01T15:34:16.221Z,71.12
2023-05-01T15:36:19.543Z,71.05
2023-05-01T15:38:25.136Z,71.01
2023-05-01T15:40:28.405Z,70.32
2023-05-01T15:42:31.879Z,69.77
2023-05-01T15:44:35.191Z,69.15
2023-05-01T15:46:38.676Z,69.94
2023-05-01T15:48:42.282Z,69.95
2023-05-01T15:50:47.404Z,69.98
2023-05-01T15:52:52.669Z,69.50
2023-05-01T15:54:57.462Z,69.06
2023-05-01T15:57:03.176Z,69.08
2023-05-01T15:59:07.894Z,69.69
2023-05-01T16:01:13.049Z,69.65
2023-05-01T16:03:16.896Z,69.15
2023-05-01T16:05:22.233Z,69.11
2023-05-01T16:07:27.189Z,69.54
2023-05-01T16:09:32.008Z,70.18
2023-05-01T16:11:36.697Z,70.72
2023-05-01T16:13:40.530Z,71.17
2023-05-01T16:15:43.939Z,71.41
2023-05-01T16:17:47.868Z,72.35
2023-05-01T16:19:52.574Z,73.02
2023-05-01T16:21:55.938Z,73.19
2023-05-01T16:24:02.172Z,73.63
2023-05-01T16:26:06.055Z,73.26
2023-05-01T16:28:11.142Z,73.32
2023-05-01T16:30:15.551Z,73.36
2023-05-01T16:32:20.688Z,73.35
2023-05-01T16:34:26.881Z,73.37
2023-05-01T16:36:30.268Z,72.77
2023-05-01T16:38:34.872Z,72.01
2023-05-01T16:40:39.385Z,71.89
2023-05-01T16:42:42.918Z,71.45
2023-05-01T16:44:47.669Z,70.94
2023-05-01T16:46:53.951Z,71.10
2023-05-01T16:48:57.567Z,71.12
2023-05-01T16:51:01.120Z,71.03
2023-05-01T16:53:04.460Z,71.06
2023-05-01T16:55:09.118Z,70.63
2023-05-01T16:57:12.410Z,70.07
2023-05-01T16:59:15.917Z,69.75
2023-05-01T17:01:20.730Z,69.38
2023-05-01T17:03:24.206Z,68.61
2023-05-01T17:05:27.753Z,68.76
2023-05-01T17:07:31.664Z,69.08
2023-05-01T17:09:34.920Z,69.32
2023-05-01T17:11:38.250Z,69.51
2023-05-01T17:13:41.773Z,70.18
2023-05-01T17:15:45.153Z,70.80
2023-05-01T17:17:49.918Z,71.01
2023-05-01T17:19:53.595Z,70.86
2023-05-01T17:21:58.126Z,70.90
2023-05-01T17:24:02.435Z,70.89
2023-05-01T17:26:06.480Z,71.18
2023-05-01T17:28:10.314Z,71.63
2023-05-01T17:30:13.940Z,72.02
2023-05-01T17:32:33.190Z,70.85
2023-05-01T17:34:40.990Z,71.35
2023-05-01T17:36:44.380Z,72.45
2023-05-01T17:38:47.937Z,73.29
2023-05-01T17:40:51.418Z,73.18
2023-05-01T17:42:54.899Z,72.74
2023-05-01T17:44:58.406Z,72.10
2023-05-01T17:47:01.935Z,71.70
2023-05-01T17:49:06.044Z,70.92
2023-05-01T17:51:10.856Z,70.02
2023-05-01T17:53:14.512Z,70.46
2023-05-01T17:55:18.612Z,69.66
2023-05-01T17:57:21.974Z,69.45
2023-05-01T17:59:26.280Z,69.11
2023-05-01T18:01:30.593Z,69.07
2023-05-01T18:03:34.123Z,69.27
2023-05-01T18:05:37.481Z,70.38
2023-05-01T18:07:42.396Z,69.97
2023-05-01T18:09:45.748Z,70.26
2023-05-01T18:11:49.185Z,71.14
2023-05-01T18:13:52.509Z,71.95
2023-05-01T18:15:56.294Z,72.63
2023-05-01T18:17:59.876Z,72.63
2023-05-01T18:20:04.054Z,73.01
2023-05-01T18:22:07.476Z,72.69
2023-05-01T18:24:12.184Z,72.89
2023-05-01T18:26:16.564Z,72.88
2023-05-01T18:28:19.986Z,72.76
2023-05-01T18:30:23.869Z,72.57
2023-05-01T18:32:39.302Z,72.34
2023-05-01T18:34:43.102Z,72.74
2023-05-01T18:36:48.422Z,72.78
2023-05-01T18:38:51.822Z,72.86
2023-05-01T18:40:56.624Z,72.67
2023-05-01T18:43:00.262Z,72.62
2023-05-01T18:45:03.964Z,72.31
2023-05-01T18:47:07.326Z,72.52
2023-05-01T18:49:10.785Z,72.57
2023-05-01T18:51:14.824Z,72.37
2023-05-01T18:53:18.133Z,72.38
2023-05-01T18:55:21.524Z,72.60
2023-05-01T18:57:27.679Z,72.58
2023-05-01T18:59:32.128Z,72.71
2023-05-01T19:01:36.235Z,72.81
2023-05-01T19:03:40.409Z,72.78
2023-05-01T19:05:43.808Z,73.04
2023-05-01T19:07:47.255Z,72.81
2023-05-01T19:09:50.716Z,73.12
2023-05-01T19:11:54.076Z,73.38
2023-05-01T19:13:59.155Z,73.46
2023-05-01T19:16:02.486Z,73.29
2023-05-01T19:18:06.039Z,73.25
2023-05-01T19:20:10.361Z,73.45
2023-05-01T19:22:13.792Z,73.13
2023-05-01T19:24:17.212Z,73.41
2023-05-01T19:26:20.877Z,73.43
2023-05-01T19:28:24.317Z,73.58
2023-05-01T19:30:29.247Z,73.63
2023-05-01T19:32:32.705Z,73.68
2023-05-01T19:34:36.055Z,74.07
2023-05-01T19:36:39.523Z,74.29
2023-05-01T19:38:45.266Z,74.27
2023-05-01T19:40:48.588Z,74.28
2023-05-01T19:42:52.154Z,74.35
2023-05-01T19:44:55.489Z,74.46
2023-05-01T19:47:00.259Z,74.46
2023-05-01T19:49:03.733Z,74.48
2023-05-01T19:51:07.156Z,75.14
2023-05-01T19:53:10.763Z,75.06
2023-05-01T19:55:14.940Z,75.22
2023-05-01T19:57:18.392Z,75.09
2023-05-01T19:59:21.748Z,75.23
2023-05-01T20:01:25.378Z,75.18
2023-05-01T20:03:30.134Z,75.28
2023-05-01T20:05:33.477Z,75.55
2023-05-01T20:07:36.852Z,75.70
2023-05-01T20:09:40.291Z,75.63
2023-05-01T20:11:43.641Z,75.60
2023-05-01T20:13:47.040Z,75.67
2023-05-01T20:15:51.371Z,75.81
2023-05-01T20:17:54.819Z,76.12
2023-05-01T20:19:59.793Z,76.18
2023-05-01T20:22:03.432Z,75.97
2023-05-01T20:24:06.984Z,76.23
2023-05-01T20:26:10.449Z,76.22
2023-05-01T20:28:15.031Z,76.11
2023-05-01T20:30:18.550Z,76.40
2023-05-01T20:32:22.058Z,76.35
2023-05-01T20:34:25.519Z,76.47
2023-05-01T20:36:30.261Z,76.73
2023-05-01T20:38:33.572Z,76.75
2023-05-01T20:40:39.929Z,77.18
2023-05-01T20:42:43.918Z,77.67
2023-05-01T20:44:47.341Z,78.19
2023-05-01T20:46:50.889Z,78.26
2023-05-01T20:48:54.428Z,78.70
2023-05-01T20:50:57.857Z,78.54
2023-05-01T20:53:02.540Z,78.59
2023-05-01T20:55:06.962Z,78.61
2023-05-01T20:57:10.344Z,78.83
2023-05-01T20:59:13.628Z,78.80
2023-05-01T21:01:16.978Z,78.60
2023-05-01T21:03:20.397Z,78.61
2023-05-01T21:05:24.269Z,78.73
2023-05-01T21:07:27.644Z,78.92
2023-05-01T21:09:33.271Z,79.31
2023-05-01T21:11:40.622Z,79.64
2023-05-01T21:13:44.032Z,79.37
2023-05-01T21:15:47.602Z,79.53
2023-05-01T21:17:51.177Z,79.62
2023-05-01T21:19:55.591Z,79.64
2023-05-01T21:21:59.065Z,79.90
2023-05-01T21:24:02.602Z,79.91
2023-05-01T21:26:07.268Z,80.11
2023-05-01T21:28:12.644Z,79.80
2023-05-01T21:30:18.420Z,79.70
2023-05-01T21:32:21.768Z,80.14
2023-05-01T21:34:25.060Z,80.32
2023-05-01T21:36:28.712Z,80.31
2023-05-01T21:38:32.221Z,80.45
2023-05-01T21:40:37.644Z,80.38
2023-05-01T21:42:42.451Z,80.51
2023-05-01T21:44:45.862Z,80.57
2023-05-01T21:46:49.331Z,80.46
2023-05-01T21:48:52.980Z,80.40
2023-05-01T21:50:56.683Z,80.45
2023-05-01T21:53:00.559Z,80.30
2023-05-01T21:55:04.696Z,80.37
2023-05-01T21:57:08.254Z,80.47
2023-05-01T21:59:13.002Z,79.91
2023-05-01T22:01:17.555Z,80.15
2023-05-01T22:03:24.516Z,80.34
2023-05-01T22:05:30.993Z,80.78
2023-05-01T22:07:34.424Z,80.85
2023-05-01T22:09:38.383Z,80.96
2023-05-01T22:11:43.645Z,80.86
2023-05-01T22:13:47.241Z,80.97
2023-05-01T22:15:51.952Z,80.88
2023-05-01T22:18:01.820Z,80.75
2023-05-01T22:20:08.921Z,80.59
2023-05-01T22:22:12.406Z,80.45
2023-05-01T22:24:20.656Z,80.30
2023-05-01T22:26:24.011Z,79.82
2023-05-01T22:28:27.684Z,80.08
2023-05-01T22:30:31.408Z,80.03
2023-05-01T22:32:36.259Z,80.04
2023-05-01T22:34:39.634Z,79.97
2023-05-01T22:36:43.463Z,80.05
2023-05-01T22:38:46.753Z,80.19
2023-05-01T22:40:50.115Z,80.19
2023-05-01T22:42:53.447Z,80.05
2023-05-01T22:44:56.855Z,80.23
2023-05-01T22:47:00.393Z,80.01
2023-05-01T22:49:05.146Z,80.02
2023-05-01T22:51:08.515Z,80.08
2023-05-01T22:53:11.978Z,80.04
2023-05-01T22:55:15.983Z,79.86
2023-05-01T22:57:19.451Z,80.03
2023-05-01T22:59:22.921Z,80.03
2023-05-01T23:01:27.072Z,80.11
2023-05-01T23:03:32.143Z,80.05
2023-05-01T23:05:36.995Z,80.10
2023-05-01T23:07:40.302Z,80.04
2023-05-01T23:09:44.314Z,79.96
2023-05-01T23:11:48.569Z,79.98
2023-05-01T23:13:52.241Z,80.02
2023-05-01T23:15:56.441Z,79.84
2023-05-01T23:17:59.927Z,79.99
2023-05-01T23:20:04.855Z,79.76
2023-05-01T23:22:11.081Z,79.90
2023-05-01T23:24:17.464Z,80.12
2023-05-01T23:26:25.201Z,80.15
2023-05-01T23:28:29.275Z,80.18
2023-05-01T23:30:32.562Z,80.03
2023-05-01T23:32:36.118Z,80.10
2023-05-01T23:34:41.105Z,80.19
2023-05-01T23:36:46.286Z,80.27
2023-05-01T23:38:51.066Z,80.38
2023-05-01T23:40:54.599Z,80.17
2023-05-01T23:42:58.713Z,80.34
2023-05-01T23:45:02.239Z,80.35
2023-05-01T23:47:06.313Z,80.39
2023-05-01T23:49:09.718Z,80.27
2023-05-01T23:51:13.426Z,80.12
2023-05-01T23:53:16.761Z,79.99
2023-05-01T23:55:21.477Z,79.93
2023-05-01T23:57:24.952Z,79.67
2023-05-01T23:59:28.307Z,79.84
